Detall de PIREP

Printer-friendly versionPDF version

[2014/08/09 07:39:00]
Flight IATA:CT2207
Pilot Number:044
Company ICAO:CAT
Aircraft Type:F100/A
PAX:80
Aircraft Registration:PFJ
Departing Airport: LFSB
Destination Airport: LFMP
Alternate Airport:LFMK
Online: VATSIM
Route:N350F180 LUMEL T10 TORPA V40 LUL G4 RLP/N350F190 G21 MOU A27 CFA A27 MEN A27 SIJAN
Flight Level:F190
No Slew and time accel
No pause
Crash detect
Detect pilot in Cockpit between each 30 and 45 minutes
07:39 Zero fuel Weight: 72761 Lbs, Fuel Weight: 10857 Lbs
07:39 VATSIM:LFSB 090730Z VRB02KT 9999 FEW026 SCT040 FEW043CB BKN120 21/17 Q1014 TEMPO SHRA
07:39 VATSIM:LFMP 090730Z 07007KT 9999 FEW046 SCT150 23/18 Q1014 NOSIG
07:40 Parking Brakes off
07:52 Take-off
07:52 Take off Weight: 83042 Lbs
07:52 Wind: 244º @ 005 Knots Heading: 156º
07:52 POS N47º 36´ 09´´ E007º 31´ 13´´
07:52 Flaps:1 at 180 Knots
07:52 Gear Up: 186 Knots
07:52 Flaps:0 at 201 Knots
08:03 TOC
08:03 Fuel Weight: 9123 Lb
08:07 Wind:259º@032 Knots Heading: 287º Ground Speed: 292 Knots Altitude 19061 ft
08:22 Wind:257º@025 Knots Heading: 228º Ground Speed: 318 Knots Altitude 19051 ft
08:24 Flaps:4 at 275 Knots
08:24 Flaps:0 at 263 Knots
08:37 Wind:241º@005 Knots Heading: 198º Ground Speed: 362 Knots Altitude 19071 ft
08:52 Wind:109º@014 Knots Heading: 177º Ground Speed: 358 Knots Altitude 19084 ft
09:02 TOD
09:02 Fuel Weight: 4914 Lb
09:07 Wind:084º@016 Knots Heading: 180º Ground Speed: 333 Knots Altitude 10748 ft
09:17 Flaps:1 at 174 Knots
09:19 Flaps:2 at 163 Knots
09:21 Flaps:3 at 184 Knots
09:21 Gear Down: 175 Knots
09:22 Wind:073º@010 Knots Heading: 333º Ground Speed: 154 Knots Altitude 328 ft
09:22 TouchDown:Rate -256 ft/min Speed: 139 Knots
09:22 VATSIM:LFMP 090900Z 07010KT 9999 FEW046 24/18 Q1014 NOSIG
09:22 Land
09:22 Wind:072º@010 Knots
09:22 Heading: 329º
09:22 Flight Duration: 01:30
09:22 Landing Weight: 76866 Lbs
09:22 POS N42º 44´ 46´´ E002º 52´ 05´´
09:26 Parking brakes on
09:26 Block to Block Duration: 01:46
09:26 Final Fuel: 3963 Lbls
09:26 Spent Fuel: 6893 Lbls
09:26 Flight Length: 466 NM
09:26 TOD Land Length: 85 NM

Exportar CSV

Powered by Drupal - Modified by Danger4k